Time;durP1;ratioP1;P1;durP2;ratioP2;P2;SDS_P1;SDS_P2;PMS_P1;PMS_P2;Temp;Humidity;BMP_temperature;BMP_pressure;BME280_temperature;BME280_humidity;BME280_pressure;Samples;Min_cycle;Max_cycle;Signal;HPM_P1;HPM_P2
2021/09/04 00:00:27;;;;;;;0.60;0.60;;;16.70;99.90;;;;;;4957957;28;20195;-87
2021/09/04 00:02:52;;;;;;;0.73;0.73;;;16.70;99.90;;;;;;4972981;28;20600;-86
2021/09/04 00:05:18;;;;;;;0.40;0.40;;;16.70;99.90;;;;;;4960017;28;21868;-87
2021/09/04 00:07:43;;;;;;;0.37;0.37;;;16.70;99.90;;;;;;4961957;28;20183;-87
2021/09/04 00:10:09;;;;;;;2.37;0.60;;;16.70;99.90;;;;;;4962704;28;20184;-86
2021/09/04 00:12:35;;;;;;;0.47;0.47;;;16.70;99.90;;;;;;4957068;28;20185;-86
2021/09/04 00:15:01;;;;;;;0.30;0.30;;;16.70;99.90;;;;;;4957896;28;20194;-84
2021/09/04 00:17:26;;;;;;;0.73;0.67;;;16.60;99.90;;;;;;4975996;28;20187;-84
2021/09/04 00:19:52;;;;;;;0.50;0.50;;;16.70;99.90;;;;;;4987082;28;20285;-84
2021/09/04 00:22:18;;;;;;;1.37;0.50;;;16.70;99.90;;;;;;4962686;28;20610;-84
2021/09/04 00:24:44;;;;;;;0.40;0.33;;;16.60;99.90;;;;;;4989968;28;20801;-84
2021/09/04 00:27:10;;;;;;;0.80;0.80;;;16.70;99.90;;;;;;4955658;28;20562;-85
2021/09/04 00:29:36;;;;;;;0.40;0.40;;;16.60;99.90;;;;;;4961697;28;20198;-85
2021/09/04 00:32:02;;;;;;;0.50;0.50;;;16.60;99.90;;;;;;4962517;28;20206;-84
2021/09/04 00:34:28;;;;;;;0.50;0.40;;;16.50;99.90;;;;;;4957861;28;20792;-85
2021/09/04 00:36:54;;;;;;;0.30;0.30;;;16.50;99.90;;;;;;4974339;28;20188;-85
2021/09/04 00:39:20;;;;;;;0.50;0.50;;;16.50;99.90;;;;;;4958514;28;20212;-84
2021/09/04 00:41:46;;;;;;;0.37;0.37;;;16.40;99.90;;;;;;4956998;28;20236;-85
2021/09/04 00:44:17;;;;;;;0.30;0.30;;;16.40;99.90;;;;;;4957155;28;20236;-86
2021/09/04 00:46:43;;;;;;;0.90;0.50;;;16.50;99.90;;;;;;4969676;28;20199;-85
2021/09/04 00:49:09;;;;;;;0.93;0.93;;;16.40;99.90;;;;;;4962020;28;20210;-84
2021/09/04 00:51:35;;;;;;;0.47;0.47;;;16.40;99.90;;;;;;4955786;28;20285;-85
2021/09/04 00:54:01;;;;;;;0.40;0.40;;;16.40;99.90;;;;;;4956707;28;20315;-85
2021/09/04 00:56:27;;;;;;;0.40;0.40;;;16.30;99.90;;;;;;4956560;28;20195;-85
2021/09/04 00:58:52;;;;;;;0.30;0.30;;;16.30;99.90;;;;;;4982021;28;20211;-84
2021/09/04 01:01:18;;;;;;;0.30;0.30;;;16.20;99.90;;;;;;4980784;28;20683;-86
2021/09/04 01:03:44;;;;;;;0.40;0.40;;;16.10;99.90;;;;;;4987849;28;20313;-85
2021/09/04 01:06:14;;;;;;;0.87;0.87;;;16.00;99.90;;;;;;4976320;28;20195;-85
2021/09/04 01:08:41;;;;;;;0.40;0.40;;;15.80;99.90;;;;;;4974055;28;20207;-85
2021/09/04 01:11:09;;;;;;;0.30;0.30;;;15.70;99.90;;;;;;4963289;28;20195;-85
2021/09/04 01:13:36;;;;;;;0.67;0.40;;;15.50;99.90;;;;;;4961142;28;20695;-84
2021/09/04 01:16:02;;;;;;;0.30;0.17;;;15.30;99.90;;;;;;4955173;28;20190;-85
2021/09/04 01:18:27;;;;;;;0.30;0.30;;;15.20;99.90;;;;;;4960092;28;20762;-85
2021/09/04 01:20:53;;;;;;;0.90;0.90;;;15.30;99.90;;;;;;4959602;28;20188;-85
2021/09/04 01:23:19;;;;;;;0.73;0.60;;;15.30;99.90;;;;;;4956790;28;20297;-85
2021/09/04 01:25:51;;;;;;;0.53;0.53;;;15.20;99.90;;;;;;4970005;28;20241;-86
2021/09/04 01:28:17;;;;;;;1.20;0.67;;;15.20;99.90;;;;;;4978476;28;20229;-84
2021/09/04 01:30:42;;;;;;;0.70;0.33;;;15.40;99.90;;;;;;4957739;28;20594;-84
2021/09/04 01:33:10;;;;;;;0.50;0.50;;;15.40;99.90;;;;;;4961043;28;20239;-84
2021/09/04 01:35:35;;;;;;;0.40;0.40;;;15.50;99.90;;;;;;4959215;28;20204;-85
2021/09/04 01:38:01;;;;;;;0.43;0.43;;;15.60;99.90;;;;;;4962613;28;20195;-85
2021/09/04 01:40:26;;;;;;;0.40;0.40;;;15.70;99.90;;;;;;4973150;28;20200;-84
2021/09/04 01:42:52;;;;;;;1.43;0.60;;;15.60;99.90;;;;;;4962834;28;20257;-85
2021/09/04 01:45:18;;;;;;;0.20;0.20;;;15.50;99.90;;;;;;4965259;28;20250;-85
2021/09/04 01:47:44;;;;;;;0.30;0.30;;;15.50;99.90;;;;;;4958130;28;20191;-85
2021/09/04 01:50:13;;;;;;;0.40;0.40;;;15.60;99.90;;;;;;4960725;28;20191;-85
2021/09/04 01:52:40;;;;;;;0.43;0.43;;;15.60;99.90;;;;;;4982652;28;20290;-85
2021/09/04 01:55:10;;;;;;;2.07;0.37;;;15.70;99.90;;;;;;4955980;28;20566;-85
2021/09/04 01:57:35;;;;;;;0.43;0.43;;;15.70;99.90;;;;;;4962365;28;20187;-85
2021/09/04 02:00:02;;;;;;;0.60;0.50;;;15.70;99.90;;;;;;4985197;28;20213;-84
2021/09/04 02:02:27;;;;;;;0.50;0.50;;;15.60;99.90;;;;;;4972692;28;20190;-84
2021/09/04 02:04:53;;;;;;;0.40;0.40;;;15.60;99.90;;;;;;4972920;28;20203;-85
2021/09/04 02:07:19;;;;;;;0.77;0.23;;;15.60;99.90;;;;;;4969463;28;20219;-84
2021/09/04 02:09:44;;;;;;;0.63;0.33;;;15.70;99.90;;;;;;4977463;28;20198;-84
2021/09/04 02:12:10;;;;;;;1.00;0.37;;;15.60;99.90;;;;;;4986935;28;20198;-85
2021/09/04 02:14:35;;;;;;;1.10;0.60;;;15.60;99.90;;;;;;4957618;28;20748;-85
2021/09/04 02:17:01;;;;;;;0.80;0.70;;;15.60;99.90;;;;;;4954658;28;20544;-85
2021/09/04 02:19:26;;;;;;;0.40;0.37;;;15.50;99.90;;;;;;4985643;28;20221;-84
2021/09/04 02:21:52;;;;;;;2.37;0.87;;;15.50;99.90;;;;;;4958017;28;20643;-84
2021/09/04 02:24:18;;;;;;;0.83;0.83;;;15.50;99.90;;;;;;4955419;28;20246;-85
2021/09/04 02:26:43;;;;;;;0.53;0.40;;;15.30;99.90;;;;;;4957613;28;20196;-84
2021/09/04 02:29:09;;;;;;;0.40;0.40;;;15.30;99.90;;;;;;4955859;28;20198;-85
2021/09/04 02:31:34;;;;;;;0.57;0.40;;;15.30;99.90;;;;;;4955932;28;20217;-85
2021/09/04 02:34:00;;;;;;;0.83;0.40;;;15.30;99.90;;;;;;4954561;28;20206;-85
2021/09/04 02:36:25;;;;;;;0.77;0.40;;;15.30;99.90;;;;;;4954374;28;20195;-85
2021/09/04 02:38:51;;;;;;;0.60;0.60;;;15.30;99.90;;;;;;4987448;28;20251;-85
2021/09/04 02:41:18;;;;;;;0.90;0.90;;;15.30;99.90;;;;;;4951334;28;20308;-85
2021/09/04 02:43:43;;;;;;;0.17;0.17;;;15.30;99.90;;;;;;4955331;28;20283;-85
2021/09/04 02:46:09;;;;;;;0.40;0.40;;;15.30;99.90;;;;;;4973809;28;20288;-85
2021/09/04 02:48:36;;;;;;;0.60;0.50;;;15.30;99.90;;;;;;4971998;28;20238;-84
2021/09/04 02:51:02;;;;;;;0.40;0.33;;;15.30;99.90;;;;;;4954773;28;20197;-85
2021/09/04 02:53:28;;;;;;;0.97;0.43;;;15.30;99.90;;;;;;4955750;28;20281;-85
2021/09/04 02:55:54;;;;;;;0.37;0.37;;;15.30;99.90;;;;;;4950043;28;20213;-85
2021/09/04 02:58:19;;;;;;;0.50;0.50;;;15.20;99.90;;;;;;4955095;28;20209;-83
2021/09/04 03:00:45;;;;;;;0.50;0.50;;;15.20;99.90;;;;;;4955430;28;20277;-85
2021/09/04 03:03:10;;;;;;;0.97;0.47;;;15.20;99.90;;;;;;4971883;28;20218;-85
2021/09/04 03:05:36;;;;;;;0.20;0.20;;;15.30;99.90;;;;;;4966712;28;20237;-84
2021/09/04 03:08:03;;;;;;;0.50;0.43;;;15.30;99.90;;;;;;4957185;28;20275;-85
2021/09/04 03:10:29;;;;;;;0.50;0.50;;;15.30;99.90;;;;;;4955398;28;20188;-85
2021/09/04 03:12:55;;;;;;;0.37;0.37;;;15.20;99.90;;;;;;4971837;28;20205;-85
2021/09/04 03:15:21;;;;;;;1.07;0.77;;;15.30;99.90;;;;;;4963126;28;20277;-84
2021/09/04 03:17:46;;;;;;;0.97;0.70;;;15.30;99.90;;;;;;4966104;28;20328;-85
2021/09/04 03:20:12;;;;;;;0.70;0.70;;;15.30;99.90;;;;;;4958473;28;20218;-84
2021/09/04 03:22:42;;;;;;;1.87;0.60;;;15.30;99.90;;;;;;4977021;28;20215;-85
2021/09/04 03:25:08;;;;;;;2.37;0.90;;;15.20;99.90;;;;;;4958157;28;20191;-85
2021/09/04 03:27:33;;;;;;;0.40;0.40;;;15.20;99.90;;;;;;4959721;28;20194;-83
2021/09/04 03:29:59;;;;;;;0.53;0.53;;;15.20;99.90;;;;;;4955243;28;20204;-83
2021/09/04 03:32:25;;;;;;;0.40;0.40;;;15.10;99.90;;;;;;4951919;28;20199;-83
2021/09/04 03:34:52;;;;;;;0.30;0.30;;;15.10;99.90;;;;;;4957759;28;20292;-83
2021/09/04 03:37:18;;;;;;;0.33;0.33;;;15.10;99.90;;;;;;4960372;28;20193;-83
2021/09/04 03:39:43;;;;;;;0.57;0.43;;;15.10;99.90;;;;;;4985765;28;20235;-84
2021/09/04 03:42:09;;;;;;;0.40;0.40;;;15.10;99.90;;;;;;4964767;28;20259;-83
2021/09/04 03:44:34;;;;;;;0.40;0.40;;;15.10;99.90;;;;;;4960642;28;20218;-83
2021/09/04 03:47:00;;;;;;;0.50;0.50;;;15.10;99.90;;;;;;4980561;28;20243;-84
2021/09/04 03:49:25;;;;;;;0.40;0.40;;;15.10;99.90;;;;;;4962475;28;20192;-84
2021/09/04 03:51:51;;;;;;;1.13;0.37;;;15.00;99.90;;;;;;4984001;28;20248;-84
2021/09/04 03:54:17;;;;;;;0.40;0.40;;;15.00;99.90;;;;;;4967061;28;20556;-83
2021/09/04 03:56:42;;;;;;;0.73;0.73;;;15.00;99.90;;;;;;4962665;28;20292;-83
2021/09/04 03:59:08;;;;;;;0.87;0.63;;;15.00;99.90;;;;;;4969077;28;20219;-84
2021/09/04 04:01:33;;;;;;;1.40;0.53;;;14.80;99.90;;;;;;4963441;28;20193;-85
2021/09/04 04:03:59;;;;;;;0.50;0.50;;;14.80;99.90;;;;;;4971192;28;20225;-84
2021/09/04 04:06:24;;;;;;;0.40;0.40;;;14.80;99.90;;;;;;4969064;28;20185;-84
2021/09/04 04:08:50;;;;;;;0.33;0.30;;;14.90;99.90;;;;;;4971004;28;20194;-83
2021/09/04 04:11:16;;;;;;;0.73;0.60;;;14.90;99.90;;;;;;4964871;28;20198;-84
2021/09/04 04:13:41;;;;;;;0.47;0.43;;;14.90;99.90;;;;;;4971410;28;20206;-84
2021/09/04 04:16:08;;;;;;;0.83;0.53;;;14.90;99.90;;;;;;4982105;28;20251;-84
2021/09/04 04:18:34;;;;;;;0.70;0.70;;;14.90;99.90;;;;;;4965199;28;20286;-84
2021/09/04 04:21:00;;;;;;;0.63;0.30;;;14.80;99.90;;;;;;4980364;28;20226;-84
2021/09/04 04:23:26;;;;;;;0.53;0.53;;;14.80;99.90;;;;;;4963490;28;20213;-83
2021/09/04 04:25:52;;;;;;;0.63;0.63;;;14.80;99.90;;;;;;4958306;28;20192;-84
2021/09/04 04:28:19;;;;;;;1.60;0.87;;;14.90;99.90;;;;;;4980205;28;20190;-83
2021/09/04 04:30:45;;;;;;;3.13;0.67;;;14.80;99.90;;;;;;4961897;28;20189;-83
2021/09/04 04:33:12;;;;;;;1.03;0.60;;;14.70;99.90;;;;;;4963528;28;20231;-83
2021/09/04 04:35:37;;;;;;;2.10;0.73;;;14.70;99.90;;;;;;4962231;28;20188;-84
2021/09/04 04:38:03;;;;;;;0.93;0.90;;;14.70;99.90;;;;;;4957729;28;20206;-84
2021/09/04 04:40:29;;;;;;;0.70;0.63;;;14.70;99.90;;;;;;4964112;28;20702;-83
2021/09/04 04:42:54;;;;;;;0.37;0.37;;;14.70;99.90;;;;;;4962281;28;20214;-84
2021/09/04 04:45:20;;;;;;;0.60;0.60;;;14.70;99.90;;;;;;4966121;28;20611;-83
2021/09/04 04:47:45;;;;;;;0.43;0.43;;;14.70;99.90;;;;;;4961457;28;20288;-83
2021/09/04 04:50:11;;;;;;;0.83;0.70;;;14.60;99.90;;;;;;4963449;28;20201;-83
2021/09/04 04:52:39;;;;;;;1.13;0.83;;;14.60;99.90;;;;;;4963336;28;20185;-84
2021/09/04 04:55:05;;;;;;;0.60;0.60;;;14.60;99.90;;;;;;4962190;28;20272;-84
2021/09/04 04:57:31;;;;;;;0.70;0.70;;;14.70;99.90;;;;;;4964519;28;20654;-83
2021/09/04 04:59:56;;;;;;;0.53;0.53;;;14.70;99.90;;;;;;4958220;28;20255;-84
2021/09/04 05:02:22;;;;;;;0.50;0.47;;;14.70;99.90;;;;;;4969912;28;20224;-84
2021/09/04 05:04:48;;;;;;;1.20;0.83;;;14.70;99.90;;;;;;4962270;28;20206;-84
2021/09/04 05:07:13;;;;;;;2.10;0.53;;;14.70;99.90;;;;;;4958354;29;20563;-84
2021/09/04 05:09:39;;;;;;;0.60;0.60;;;14.80;99.90;;;;;;4990207;28;20180;-84
2021/09/04 05:12:05;;;;;;;4.27;1.03;;;14.80;99.90;;;;;;4994442;28;20216;-83
2021/09/04 05:14:30;;;;;;;0.80;0.80;;;14.80;99.90;;;;;;4963017;28;20302;-88
2021/09/04 05:16:56;;;;;;;1.50;0.73;;;14.80;99.90;;;;;;4957832;28;20190;-85
2021/09/04 05:19:21;;;;;;;1.30;0.63;;;14.80;99.90;;;;;;4947061;28;20206;-85
2021/09/04 05:21:48;;;;;;;0.47;0.47;;;14.90;99.90;;;;;;4947363;28;20265;-85
2021/09/04 05:24:14;;;;;;;0.27;0.27;;;15.00;99.90;;;;;;4956528;28;20200;-85
2021/09/04 05:26:39;;;;;;;0.97;0.73;;;15.00;99.90;;;;;;4956234;28;20277;-85
2021/09/04 05:29:05;;;;;;;0.80;0.80;;;15.10;99.90;;;;;;4975298;28;20672;-85
2021/09/04 05:31:31;;;;;;;0.90;0.83;;;15.10;99.90;;;;;;4958512;28;20239;-85
2021/09/04 05:33:57;;;;;;;4.17;0.57;;;15.20;99.90;;;;;;4969195;28;20209;-86
2021/09/04 05:36:23;;;;;;;0.50;0.50;;;15.20;99.90;;;;;;4982634;28;20243;-85
2021/09/04 05:38:49;;;;;;;0.47;0.47;;;15.20;99.90;;;;;;4958604;28;20218;-85
2021/09/04 05:41:15;;;;;;;0.47;0.47;;;15.30;99.90;;;;;;4958103;28;20195;-85
2021/09/04 05:43:40;;;;;;;0.60;0.50;;;15.40;99.90;;;;;;4955858;28;20773;-85
2021/09/04 05:46:06;;;;;;;0.83;0.63;;;15.50;99.90;;;;;;4954769;28;20187;-85
2021/09/04 05:48:31;;;;;;;1.20;0.57;;;15.50;99.90;;;;;;4955774;28;20194;-85
2021/09/04 05:50:57;;;;;;;0.70;0.70;;;15.50;99.90;;;;;;4973482;28;20222;-86
2021/09/04 05:53:22;;;;;;;1.50;0.50;;;15.50;99.90;;;;;;4955657;28;20262;-85
2021/09/04 05:55:48;;;;;;;0.30;0.30;;;15.60;99.90;;;;;;4969287;28;20193;-87
2021/09/04 05:58:14;;;;;;;0.60;0.60;;;15.60;99.90;;;;;;4954026;28;20609;-85
2021/09/04 06:00:40;;;;;;;0.83;0.83;;;15.50;99.90;;;;;;4954997;28;20181;-86
2021/09/04 06:03:05;;;;;;;0.43;0.43;;;15.60;99.90;;;;;;4955716;28;20218;-85
2021/09/04 06:05:31;;;;;;;1.50;0.73;;;15.60;99.90;;;;;;4956005;28;20195;-85
2021/09/04 06:07:57;;;;;;;0.90;0.50;;;15.60;99.90;;;;;;4954897;28;20195;-85
2021/09/04 06:10:23;;;;;;;1.80;0.50;;;15.60;99.90;;;;;;4955286;28;20559;-86
2021/09/04 06:12:49;;;;;;;0.53;0.53;;;15.70;99.90;;;;;;4972780;28;20248;-85
2021/09/04 06:15:14;;;;;;;0.90;0.90;;;15.90;99.90;;;;;;4959139;28;20284;-86
2021/09/04 06:17:40;;;;;;;1.20;0.73;;;16.10;99.90;;;;;;4971995;28;20193;-85
2021/09/04 06:20:07;;;;;;;1.77;0.60;;;16.30;99.90;;;;;;4958105;28;20218;-85
2021/09/04 06:22:33;;;;;;;0.20;0.20;;;16.40;99.90;;;;;;4955453;28;20178;-85
2021/09/04 06:24:58;;;;;;;0.40;0.40;;;16.50;99.90;;;;;;4969019;28;20731;-86
2021/09/04 06:27:24;;;;;;;0.97;0.50;;;16.70;99.90;;;;;;4957962;28;20848;-85
2021/09/04 06:29:49;;;;;;;0.40;0.40;;;16.90;99.90;;;;;;4964719;28;20194;-85
2021/09/04 06:32:16;;;;;;;0.40;0.40;;;17.00;99.90;;;;;;4956747;28;20665;-86
2021/09/04 06:34:41;;;;;;;2.03;0.63;;;17.10;99.90;;;;;;4974095;28;20217;-84
2021/09/04 06:37:07;;;;;;;0.50;0.50;;;17.20;99.90;;;;;;4953648;28;20756;-84
2021/09/04 06:39:33;;;;;;;1.17;0.80;;;17.30;99.90;;;;;;4977937;28;20239;-84
2021/09/04 06:41:58;;;;;;;1.43;0.60;;;17.50;99.90;;;;;;4951151;28;20545;-84
2021/09/04 06:44:24;;;;;;;1.90;0.70;;;17.60;99.90;;;;;;4978961;28;20222;-84
2021/09/04 06:46:50;;;;;;;0.40;0.40;;;17.70;99.90;;;;;;4956958;28;20191;-84
2021/09/04 06:49:15;;;;;;;0.40;0.40;;;17.80;99.90;;;;;;4973968;28;21094;-83
2021/09/04 06:51:42;;;;;;;0.60;0.60;;;18.00;99.90;;;;;;4968282;28;20215;-83
2021/09/04 06:54:08;;;;;;;0.70;0.70;;;18.10;99.90;;;;;;4953320;28;20211;-83
2021/09/04 06:56:33;;;;;;;0.30;0.30;;;18.30;99.90;;;;;;4973551;28;20258;-83
2021/09/04 06:58:59;;;;;;;0.67;0.67;;;18.40;99.90;;;;;;4955596;28;20231;-83
2021/09/04 07:01:24;;;;;;;0.80;0.77;;;18.60;99.90;;;;;;4972007;28;20189;-83
2021/09/04 07:03:50;;;;;;;0.70;0.57;;;18.70;99.90;;;;;;4958680;28;20252;-83
2021/09/04 07:06:15;;;;;;;0.30;0.30;;;18.70;99.90;;;;;;4956159;28;20172;-83
2021/09/04 07:08:42;;;;;;;0.50;0.50;;;18.90;99.90;;;;;;4958571;28;20687;-84
2021/09/04 07:11:08;;;;;;;1.17;0.83;;;19.10;99.90;;;;;;4961363;28;20199;-83
2021/09/04 07:13:34;;;;;;;0.30;0.30;;;19.30;99.90;;;;;;4958286;28;20204;-84
2021/09/04 07:15:59;;;;;;;0.50;0.50;;;19.40;99.90;;;;;;4957458;28;20258;-84
2021/09/04 07:18:25;;;;;;;0.57;0.57;;;19.50;99.90;;;;;;4973882;28;20221;-83
2021/09/04 07:20:51;;;;;;;1.27;0.90;;;19.70;99.90;;;;;;4974230;28;20187;-83
2021/09/04 07:23:16;;;;;;;0.70;0.70;;;19.80;99.90;;;;;;4963389;28;20208;-83
2021/09/04 07:25:42;;;;;;;0.70;0.70;;;20.00;99.90;;;;;;4961204;28;20195;-83
2021/09/04 07:28:08;;;;;;;0.83;0.83;;;20.10;99.90;;;;;;4973642;28;20198;-83
2021/09/04 07:30:35;;;;;;;0.70;0.70;;;20.20;99.90;;;;;;4960022;28;20201;-83
2021/09/04 07:33:01;;;;;;;0.80;0.80;;;20.40;99.90;;;;;;4988784;28;20218;-83
2021/09/04 07:35:27;;;;;;;0.77;0.77;;;20.40;99.90;;;;;;4973635;28;20247;-83
2021/09/04 07:37:53;;;;;;;0.47;0.47;;;20.50;99.90;;;;;;4974060;28;20192;-83
2021/09/04 07:40:19;;;;;;;1.40;1.30;;;20.60;99.90;;;;;;4980362;28;20220;-83
2021/09/04 07:42:44;;;;;;;0.57;0.57;;;20.70;99.90;;;;;;4959247;28;20550;-83
2021/09/04 07:45:10;;;;;;;1.43;0.70;;;20.80;99.90;;;;;;4957646;28;20673;-83
2021/09/04 07:47:36;;;;;;;1.00;0.63;;;20.90;99.90;;;;;;4956103;28;20215;-82
2021/09/04 07:50:02;;;;;;;0.70;0.67;;;21.00;99.90;;;;;;4961971;28;20188;-84
2021/09/04 07:52:28;;;;;;;1.03;0.90;;;21.10;99.90;;;;;;4958592;28;20279;-86
2021/09/04 07:54:53;;;;;;;7.37;0.90;;;21.30;99.90;;;;;;4967822;28;20267;-86
2021/09/04 07:57:19;;;;;;;2.53;0.93;;;21.20;99.90;;;;;;4955320;28;20295;-83
2021/09/04 07:59:45;;;;;;;1.57;0.77;;;21.30;99.90;;;;;;4973757;28;20585;-84
2021/09/04 08:02:10;;;;;;;0.70;0.70;;;21.50;99.90;;;;;;4957002;28;20654;-85
2021/09/04 08:04:36;;;;;;;0.33;0.33;;;21.70;99.90;;;;;;4973467;28;20220;-84
2021/09/04 08:07:02;;;;;;;0.90;0.47;;;21.90;99.90;;;;;;4954727;28;20271;-86
2021/09/04 08:09:27;;;;;;;0.80;0.60;;;22.00;99.90;;;;;;4960157;28;20196;-86
2021/09/04 08:11:53;;;;;;;0.90;0.90;;;22.10;99.90;;;;;;4976497;28;20184;-86
2021/09/04 08:14:18;;;;;;;0.53;0.53;;;22.20;99.90;;;;;;4956157;28;20227;-86
2021/09/04 08:16:44;;;;;;;0.57;0.53;;;22.40;99.90;;;;;;4955923;28;20224;-86
2021/09/04 08:19:10;;;;;;;0.40;0.40;;;22.50;99.90;;;;;;4957373;28;20214;-88
2021/09/04 08:21:36;;;;;;;0.80;0.80;;;22.60;99.90;;;;;;4957316;28;20276;-88
2021/09/04 08:24:01;;;;;;;0.40;0.40;;;22.50;99.90;;;;;;4957283;28;20210;-87
2021/09/04 08:26:27;;;;;;;1.07;0.73;;;22.60;99.90;;;;;;4989184;28;20180;-87
2021/09/04 08:28:52;;;;;;;0.77;0.77;;;22.40;99.90;;;;;;4957750;28;20185;-87
2021/09/04 08:31:18;;;;;;;1.40;0.83;;;22.60;99.90;;;;;;4957615;28;20180;-88
2021/09/04 08:33:43;;;;;;;0.70;0.60;;;22.20;99.90;;;;;;4974757;28;20285;-87
2021/09/04 08:36:09;;;;;;;0.83;0.80;;;22.10;99.90;;;;;;4974430;28;20573;-87
2021/09/04 08:38:34;;;;;;;1.10;0.80;;;22.20;99.90;;;;;;4974440;28;20262;-87
2021/09/04 08:41:00;;;;;;;0.60;0.60;;;22.30;99.90;;;;;;4974674;28;20254;-87
2021/09/04 08:43:26;;;;;;;1.30;0.90;;;22.50;99.90;;;;;;4974496;28;20215;-88
2021/09/04 08:45:51;;;;;;;1.33;0.87;;;22.20;99.90;;;;;;4974545;28;20187;-88
2021/09/04 08:48:20;;;;;;;1.57;1.17;;;22.70;99.90;;;;;;4958681;28;20275;-88
2021/09/04 08:50:45;;;;;;;2.37;1.10;;;22.90;99.90;;;;;;4956764;28;20263;-87
2021/09/04 08:53:11;;;;;;;1.07;0.60;;;22.80;99.90;;;;;;4954855;28;20695;-87
2021/09/04 08:55:37;;;;;;;0.50;0.50;;;23.30;99.90;;;;;;4956980;28;20664;-87
2021/09/04 08:58:03;;;;;;;1.03;1.03;;;23.50;99.90;;;;;;4956779;28;20219;-88
2021/09/04 09:00:34;;;;;;;0.80;0.80;;;22.70;99.90;;;;;;4956933;28;20254;-87
2021/09/04 09:03:01;;;;;;;1.23;1.07;;;23.00;99.90;;;;;;4956869;28;20234;-87
2021/09/04 09:05:40;;;;;;;0.53;0.53;;;23.20;99.90;;;;;;4957144;28;20593;-88
2021/09/04 09:08:06;;;;;;;0.87;0.80;;;23.60;99.90;;;;;;4956895;28;20192;-87
2021/09/04 09:10:37;;;;;;;0.80;0.43;;;24.00;99.90;;;;;;4973611;28;20189;-88
2021/09/04 09:13:04;;;;;;;0.50;0.50;;;24.10;99.90;;;;;;4956562;28;20692;-85
2021/09/04 09:15:32;;;;;;;0.80;0.80;;;24.40;99.90;;;;;;4956868;28;20257;-85
2021/09/04 09:18:13;;;;;;;1.70;1.10;;;23.90;99.90;;;;;;4957026;28;20274;-85
2021/09/04 09:20:41;;;;;;;1.00;1.00;;;24.00;99.90;;;;;;4956818;28;20211;-85
2021/09/04 09:23:14;;;;;;;1.40;1.23;;;23.80;99.90;;;;;;4972959;28;20215;-85
2021/09/04 09:25:42;;;;;;;0.77;0.77;;;23.80;99.90;;;;;;4951768;28;20189;-86
2021/09/04 09:28:16;;;;;;;2.77;1.23;;;24.20;99.90;;;;;;4956258;28;20185;-85
2021/09/04 09:30:53;;;;;;;1.33;1.00;;;24.30;99.90;;;;;;4973788;28;20184;-85
2021/09/04 09:33:21;;;;;;;1.37;0.77;;;24.20;99.90;;;;;;4954993;28;20314;-86
2021/09/04 09:35:48;;;;;;;0.57;0.57;;;24.40;99.90;;;;;;4972900;28;20187;-86
2021/09/04 09:38:17;;;;;;;0.33;0.33;;;24.80;99.90;;;;;;4953211;28;20652;-84
2021/09/04 09:40:43;;;;;;;0.63;0.63;;;25.30;99.90;;;;;;4974541;28;20576;-85
2021/09/04 09:43:29;;;;;;;0.77;0.77;;;25.10;99.90;;;;;;4955441;28;20215;-85
2021/09/04 09:46:02;;;;;;;0.90;0.90;;;25.50;99.90;;;;;;4965038;28;20207;-85
2021/09/04 09:48:33;;;;;;;1.20;0.77;;;25.60;99.90;;;;;;4957898;28;20222;-85
2021/09/04 09:51:02;;;;;;;1.43;0.67;;;25.60;99.90;;;;;;4968446;28;20193;-86
2021/09/04 09:53:28;;;;;;;1.07;0.87;;;25.90;99.90;;;;;;4952541;28;20214;-85
2021/09/04 09:55:55;;;;;;;1.47;1.00;;;25.90;99.90;;;;;;4972354;28;20176;-85
2021/09/04 09:58:23;;;;;;;1.17;1.07;;;26.10;99.90;;;;;;4972268;28;20601;-85
2021/09/04 10:00:51;;;;;;;1.40;1.10;;;26.30;99.90;;;;;;4972462;28;20184;-85
2021/09/04 10:03:19;;;;;;;1.87;0.77;;;26.40;99.90;;;;;;4955466;28;20228;-85
2021/09/04 10:05:45;;;;;;;0.57;0.53;;;26.60;99.90;;;;;;4963002;28;20708;-86
2021/09/04 10:08:14;;;;;;;0.70;0.70;;;26.80;99.90;;;;;;4958691;28;20199;-86
2021/09/04 10:10:40;;;;;;;2.00;1.17;;;27.00;99.90;;;;;;4973581;28;20196;-86
2021/09/04 10:13:06;;;;;;;1.60;1.00;;;26.90;99.90;;;;;;4953950;28;20576;-86
2021/09/04 10:15:36;;;;;;;0.97;0.97;;;26.70;99.90;;;;;;4978758;28;20187;-86
2021/09/04 10:18:05;;;;;;;1.23;0.70;;;26.90;99.90;;;;;;4956354;28;20196;-86
2021/09/04 10:20:32;;;;;;;3.20;0.70;;;27.10;99.90;;;;;;4955744;28;20220;-85
2021/09/04 10:23:34;;;;;;;0.50;0.50;;;27.10;99.90;;;;;;4955471;28;20235;-86
2021/09/04 10:26:32;;;;;;;0.77;0.70;;;27.00;99.90;;;;;;4953875;28;20263;-85
2021/09/04 10:29:03;;;;;;;0.80;0.80;;;27.00;99.90;;;;;;4984091;28;20559;-86
2021/09/04 10:31:52;;;;;;;1.10;1.00;;;26.20;99.90;;;;;;4977448;28;20191;-86
2021/09/04 10:34:30;;;;;;;2.13;1.13;;;26.40;99.90;;;;;;4959456;28;20204;-86
2021/09/04 10:37:02;;;;;;;0.80;0.67;;;26.70;99.90;;;;;;4963464;28;20183;-85
2021/09/04 10:39:49;;;;;;;0.50;0.50;;;27.20;99.90;;;;;;4974640;28;20266;-85
2021/09/04 10:42:21;;;;;;;0.83;0.83;;;27.00;99.90;;;;;;4962069;28;20220;-86
2021/09/04 10:44:49;;;;;;;1.10;1.03;;;26.70;99.90;;;;;;4963978;28;20255;-85
2021/09/04 10:47:16;;;;;;;1.03;0.97;;;26.10;99.90;;;;;;4965345;28;20182;-86
2021/09/04 10:49:45;;;;;;;1.07;1.07;;;26.50;99.90;;;;;;4965726;28;20821;-85
2021/09/04 10:52:11;;;;;;;0.80;0.80;;;26.70;99.90;;;;;;4969941;28;20228;-85
2021/09/04 10:54:56;;;;;;;0.70;0.70;;;26.80;99.90;;;;;;4962629;28;20216;-85
2021/09/04 10:57:21;;;;;;;0.53;0.53;;;27.00;99.90;;;;;;4958187;28;20565;-86
2021/09/04 11:00:08;;;;;;;1.03;0.60;;;26.80;99.90;;;;;;4959420;28;20209;-86
2021/09/04 11:02:43;;;;;;;0.60;0.60;;;27.30;99.90;;;;;;4974900;28;20177;-86
2021/09/04 11:05:40;;;;;;;0.80;0.77;;;27.40;99.90;;;;;;4946233;28;20195;-86
2021/09/04 11:08:08;;;;;;;2.80;0.83;;;27.30;99.90;;;;;;4988871;28;20189;-85
2021/09/04 11:10:35;;;;;;;3.20;0.73;;;26.80;99.90;;;;;;4950366;28;20184;-85
2021/09/04 11:13:40;;;;;;;0.30;0.30;;;26.80;99.90;;;;;;4959497;28;20607;-85
2021/09/04 11:16:41;;;;;;;0.83;0.80;;;27.00;99.90;;;;;;4957751;28;20574;-85
2021/09/04 11:19:13;;;;;;;1.10;1.00;;;27.10;99.90;;;;;;4957926;28;20684;-85
2021/09/04 11:22:00;;;;;;;0.80;0.77;;;27.30;99.90;;;;;;4973464;28;20176;-85
2021/09/04 11:24:35;;;;;;;0.63;0.63;;;27.30;99.90;;;;;;4956768;28;20215;-85
2021/09/04 11:27:02;;;;;;;1.70;1.20;;;27.10;99.90;;;;;;4962727;28;20190;-87
2021/09/04 11:29:28;;;;;;;0.80;0.80;;;26.30;99.90;;;;;;4973197;28;20225;-85
2021/09/04 11:32:01;;;;;;;0.63;0.63;;;26.60;99.90;;;;;;4963299;28;20185;-85
2021/09/04 11:34:38;;;;;;;3.37;1.10;;;27.10;99.90;;;;;;4956529;28;20226;-86
2021/09/04 11:37:17;;;;;;;0.90;0.77;;;27.20;99.90;;;;;;4963013;28;20199;-86
2021/09/04 11:39:43;;;;;;;0.47;0.30;;;27.20;99.90;;;;;;4972141;28;20211;-86
2021/09/04 11:42:13;;;;;;;1.07;0.40;;;27.30;99.90;;;;;;4968811;28;20689;-87
2021/09/04 11:45:05;;;;;;;0.77;0.77;;;27.70;99.90;;;;;;4962118;28;20208;-86
2021/09/04 11:47:31;;;;;;;1.77;1.60;;;27.30;99.90;;;;;;4948298;28;20196;-87
2021/09/04 11:49:59;;;;;;;1.37;1.00;;;27.00;99.90;;;;;;4973156;28;20189;-84
2021/09/04 11:52:43;;;;;;;1.17;0.90;;;27.00;99.90;;;;;;4963490;28;20569;-85
2021/09/04 11:55:12;;;;;;;0.60;0.60;;;27.30;99.90;;;;;;4963972;28;20193;-84
2021/09/04 11:57:41;;;;;;;1.33;0.77;;;27.50;99.90;;;;;;4956603;28;20192;-84
2021/09/04 12:00:17;;;;;;;0.57;0.57;;;27.40;99.90;;;;;;4974669;28;20221;-84
2021/09/04 12:02:47;;;;;;;1.83;1.23;;;27.20;99.90;;;;;;4957325;28;20370;-85
2021/09/04 12:05:15;;;;;;;0.73;0.73;;;26.90;99.90;;;;;;4957693;28;20656;-85
2021/09/04 12:07:41;;;;;;;0.70;0.70;;;26.30;99.90;;;;;;4957620;28;20207;-84
2021/09/04 12:10:08;;;;;;;1.33;1.23;;;26.30;99.90;;;;;;4966580;28;20207;-84
2021/09/04 12:12:34;;;;;;;1.93;0.80;;;26.30;99.90;;;;;;4957530;28;20276;-84
2021/09/04 12:15:04;;;;;;;1.00;0.67;;;26.20;99.90;;;;;;4957288;28;20184;-85
2021/09/04 12:17:30;;;;;;;1.10;1.00;;;26.20;99.90;;;;;;4974971;28;20227;-85
2021/09/04 12:20:09;;;;;;;7.10;3.63;;;26.40;99.90;;;;;;4988810;28;20264;-88
2021/09/04 12:22:35;;;;;;;1.10;0.87;;;26.50;99.90;;;;;;4980668;28;20305;-85
2021/09/04 12:25:02;;;;;;;1.10;1.10;;;26.70;99.90;;;;;;4965957;28;20264;-85
2021/09/04 12:27:46;;;;;;;1.37;1.30;;;26.60;99.90;;;;;;4958526;28;20185;-84
2021/09/04 12:30:12;;;;;;;2.37;1.40;;;26.50;99.90;;;;;;4953803;28;20187;-86
2021/09/04 12:32:37;;;;;;;1.70;0.87;;;26.40;99.90;;;;;;4989402;28;20668;-85
2021/09/04 12:35:06;;;;;;;0.93;0.93;;;26.90;99.90;;;;;;4963549;28;20188;-85
2021/09/04 12:37:33;;;;;;;0.83;0.80;;;27.50;99.90;;;;;;4984603;28;20187;-85
2021/09/04 12:40:06;;;;;;;1.60;0.90;;;27.70;99.90;;;;;;4985621;28;20299;-86
2021/09/04 12:42:32;;;;;;;1.33;0.63;;;28.20;99.90;;;;;;4965292;28;20664;-86
2021/09/04 12:45:18;;;;;;;0.77;0.77;;;28.30;99.90;;;;;;4993457;28;20187;-85
2021/09/04 12:47:50;;;;;;;1.03;0.67;;;28.30;99.90;;;;;;4973418;28;21243;-85
2021/09/04 12:50:20;;;;;;;0.50;0.50;;;28.40;99.90;;;;;;4979823;28;20179;-86